Terminal Aerodrome Forecast
Issued by NWS

Home | Current Version | Previous Version | Text Only | Print | Product List | Glossary On
Versions: 1 2 3 4 5 6 7 8 9 10 11 12 13 14 15 16 17 18 19 20 21 22 23 24 25
000
FTUS41 KCTP 282338
TAFAOO
TAF
KAOO 282338Z 2900/2924 08008G16KT P6SM VCSH BKN050
      TEMPO 2901/2904 3SM TSRA BR OVC040CB
     FM290700 31003KT 5SM BR SCT035
     FM291400 35006KT P6SM SCT250=

USA.gov is the U.S. government's official web portal to all federal, state and local government web resources and services.